Time;durP1;ratioP1;P1;durP2;ratioP2;P2;SDS_P1;SDS_P2;PMS_P1;PMS_P2;Temp;Humidity;BMP_temperature;BMP_pressure;BME280_temperature;BME280_humidity;BME280_pressure;Samples;Min_cycle;Max_cycle;Signal;HPM_P1;HPM_P2
2022/08/09 00:01:11;;;;;;;50.35;36.55;;;;;;;32.17;78.57;97550.00;4974706;28;20154;-72
2022/08/09 00:03:56;;;;;;;51.78;37.83;;;;;;;32.23;78.41;97556.00;4971082;28;20073;-72
2022/08/09 00:06:59;;;;;;;51.72;37.67;;;;;;;32.19;78.38;97548.44;4977135;28;20097;-72
2022/08/09 00:09:50;;;;;;;51.75;37.33;;;;;;;32.11;78.50;97557.91;4978325;28;20477;-72
2022/08/09 00:12:32;;;;;;;50.17;36.20;;;;;;;32.10;79.02;97553.53;4976089;28;20352;-72
2022/08/09 00:15:22;;;;;;;53.08;36.95;;;;;;;32.06;78.73;97549.91;4968562;28;20117;-72
2022/08/09 00:18:24;;;;;;;49.65;35.85;;;;;;;32.08;78.95;97553.13;4967172;28;20050;-72
2022/08/09 00:21:15;;;;;;;51.33;36.35;;;;;;;32.01;78.84;97561.38;4966321;28;20047;-71
2022/08/09 00:23:57;;;;;;;49.72;36.33;;;;;;;32.13;78.59;97569.41;4948106;28;20067;-72
2022/08/09 00:26:51;;;;;;;50.42;36.25;;;;;;;32.07;79.06;97565.41;4948020;29;20349;-72
2022/08/09 00:29:34;;;;;;;55.63;38.05;;;;;;;32.16;78.50;97565.09;4912517;29;20062;-72
2022/08/09 00:32:43;;;;;;;53.13;35.60;;;;;;;32.11;78.89;97570.97;4947010;29;20140;-72
2022/08/09 00:35:27;;;;;;;48.00;36.42;;;;;;;32.14;78.62;97573.78;4938035;28;20054;-72
2022/08/09 00:38:23;;;;;;;55.17;36.22;;;;;;;32.14;79.00;97579.34;4943333;29;20047;-72
2022/08/09 00:41:06;;;;;;;49.67;36.95;;;;;;;32.14;79.20;97575.75;4948277;29;20042;-72
2022/08/09 00:44:15;;;;;;;57.35;39.13;;;;;;;32.09;78.81;97579.69;4947724;29;20669;-72
2022/08/09 00:47:07;;;;;;;57.63;41.15;;;;;;;32.06;79.21;97586.00;4936039;28;20036;-72
2022/08/09 00:49:56;;;;;;;67.82;46.80;;;;;;;32.13;79.21;97590.81;4938932;29;20129;-72
2022/08/09 00:52:38;;;;;;;65.97;46.88;;;;;;;32.18;78.74;97591.25;4931520;29;20083;-72
2022/08/09 00:55:29;;;;;;;68.82;47.05;;;;;;;32.23;78.97;97587.31;4931003;29;20048;-72
2022/08/09 00:58:33;;;;;;;71.88;46.45;;;;;;;32.26;78.78;97594.09;4933449;29;20052;-72
2022/08/09 01:01:39;;;;;;;72.38;47.50;;;;;;;32.35;78.70;97597.31;4931465;29;20118;-72
2022/08/09 01:05:04;;;;;;;69.20;45.67;;;;;;;32.38;78.64;97607.66;4928453;29;20062;-72
2022/08/09 01:07:56;;;;;;;60.60;41.08;;;;;;;32.37;78.62;97603.31;4947289;29;20075;-72
2022/08/09 01:11:08;;;;;;;56.90;39.30;;;;;;;32.46;78.68;97597.41;4947065;29;20051;-72
2022/08/09 01:14:06;;;;;;;54.58;39.60;;;;;;;32.57;78.22;97601.06;4947149;29;20122;-72
2022/08/09 01:17:10;;;;;;;57.72;38.55;;;;;;;32.61;78.19;97601.88;4947344;29;20051;-72
2022/08/09 01:19:58;;;;;;;51.72;38.28;;;;;;;32.58;78.48;97600.69;4946764;28;20137;-70
2022/08/09 01:23:16;;;;;;;54.60;38.58;;;;;;;32.75;78.14;97609.50;4947148;29;20676;-73
2022/08/09 01:26:30;;;;;;;56.85;38.38;;;;;;;32.80;77.75;97617.47;4957448;28;20493;-72
2022/08/09 01:29:34;;;;;;;51.83;36.50;;;;;;;32.91;77.49;97614.75;4958874;28;20051;-72
2022/08/09 01:32:35;;;;;;;49.63;35.88;;;;;;;32.93;76.69;97607.59;4966226;28;20057;-72
2022/08/09 01:35:52;;;;;;;48.90;35.65;;;;;;;33.01;76.56;97621.53;4964520;28;20802;-72
2022/08/09 01:38:33;;;;;;;45.67;33.97;;;;;;;33.02;76.44;97617.56;4952238;28;20949;-72
2022/08/09 01:41:40;;;;;;;46.00;34.33;;;;;;;33.15;76.76;97621.63;4951963;28;20054;-72
2022/08/09 01:44:37;;;;;;;45.92;33.53;;;;;;;32.80;75.43;97623.03;4947829;28;20112;-72
2022/08/09 01:47:33;;;;;;;42.28;31.88;;;;;;;32.96;75.03;97634.63;4966006;28;20109;-72
2022/08/09 01:50:27;;;;;;;48.28;33.65;;;;;;;33.21;75.66;97624.81;4965633;28;20047;-72
2022/08/09 01:53:23;;;;;;;44.65;31.98;;;;;;;33.22;74.76;97623.66;4965122;28;20062;-72
2022/08/09 01:56:29;;;;;;;44.35;31.90;;;;;;;33.46;74.08;97636.03;4964748;28;20145;-72
2022/08/09 01:59:09;;;;;;;41.45;31.55;;;;;;;33.54;72.47;97632.88;4931395;28;20067;-72
2022/08/09 02:02:05;;;;;;;39.95;29.60;;;;;;;33.60;73.58;97636.06;4967880;28;20051;-72
2022/08/09 02:04:43;;;;;;;40.63;30.65;;;;;;;33.77;72.94;97642.91;4965176;28;20047;-72
2022/08/09 02:07:36;;;;;;;44.03;31.30;;;;;;;33.68;72.52;97637.69;4965185;28;20051;-72
2022/08/09 02:10:44;;;;;;;39.40;29.55;;;;;;;33.79;71.82;97642.50;4965467;28;20051;-72
2022/08/09 02:13:35;;;;;;;39.05;28.30;;;;;;;34.03;70.58;97638.16;4951779;28;20656;-72
2022/08/09 02:16:46;;;;;;;40.70;28.67;;;;;;;34.51;69.27;97646.13;4965354;28;20062;-72
2022/08/09 02:19:55;;;;;;;33.38;28.45;;;;;;;34.63;68.42;97650.50;4960226;28;20043;-73
2022/08/09 02:22:50;;;;;;;32.15;27.33;;;;;;;34.86;67.14;97650.06;4945922;29;20117;-72
2022/08/09 02:25:48;;;;;;;36.85;26.92;;;;;;;34.92;67.08;97656.03;4938459;29;20058;-73
2022/08/09 02:28:39;;;;;;;35.28;27.00;;;;;;;35.26;65.57;97659.13;4946339;29;20055;-72
2022/08/09 02:31:36;;;;;;;32.92;26.08;;;;;;;35.59;65.65;97659.75;4945749;29;20071;-73
2022/08/09 02:34:23;;;;;;;38.22;25.33;;;;;;;35.83;65.17;97664.44;4930877;29;20053;-73
2022/08/09 02:37:23;;;;;;;32.05;25.00;;;;;;;35.98;64.79;97664.31;4974507;28;20132;-71
2022/08/09 02:40:22;;;;;;;30.92;24.92;;;;;;;36.45;61.80;97667.59;4984792;28;20225;-71
2022/08/09 02:43:12;;;;;;;33.85;23.95;;;;;;;36.48;62.01;97674.34;4967229;28;20070;-71
2022/08/09 02:46:11;;;;;;;28.67;25.00;;;;;;;36.68;62.13;97678.19;4977777;28;20133;-71
2022/08/09 02:49:11;;;;;;;27.27;23.67;;;;;;;36.58;60.38;97671.47;4951071;28;20522;-71
2022/08/09 02:52:16;;;;;;;32.58;25.17;;;;;;;35.78;64.23;97678.81;4931755;29;20051;-71
2022/08/09 02:55:18;;;;;;;28.08;23.40;;;;;;;35.84;64.00;97679.19;4930743;29;20103;-70
2022/08/09 02:57:57;;;;;;;28.25;23.98;;;;;;;36.21;62.97;97686.94;4931118;29;20048;-70
2022/08/09 03:01:07;;;;;;;30.95;24.63;;;;;;;36.11;62.74;97690.56;4949972;29;20545;-71
2022/08/09 03:04:18;;;;;;;31.75;24.65;;;;;;;35.62;63.53;97686.88;4939051;29;20731;-70
2022/08/09 03:07:08;;;;;;;31.85;24.55;;;;;;;35.85;63.13;97689.94;4952531;29;20058;-71
2022/08/09 03:09:58;;;;;;;30.50;22.85;;;;;;;35.78;64.80;97689.19;4952033;28;20490;-70
2022/08/09 03:12:49;;;;;;;26.70;22.20;;;;;;;35.13;64.30;97695.00;4946943;29;20134;-72
2022/08/09 03:15:39;;;;;;;26.40;22.80;;;;;;;35.09;64.67;97688.63;4970422;28;20050;-72
2022/08/09 03:18:43;;;;;;;25.13;21.75;;;;;;;35.37;63.68;97700.91;4968717;28;20042;-71
2022/08/09 03:21:36;;;;;;;28.27;23.60;;;;;;;35.40;64.01;97700.13;4968545;28;20105;-72
2022/08/09 03:24:19;;;;;;;27.08;21.90;;;;;;;35.43;63.64;97691.72;4968542;28;20057;-72
2022/08/09 03:27:30;;;;;;;28.20;21.63;;;;;;;36.28;61.59;97688.88;4968690;28;20189;-72
2022/08/09 03:30:26;;;;;;;33.25;22.77;;;;;;;36.34;61.99;97694.81;4968053;28;20089;-72
2022/08/09 03:33:18;;;;;;;26.85;22.33;;;;;;;36.54;61.61;97697.84;4966724;28;20055;-71
2022/08/09 03:36:01;;;;;;;27.50;22.60;;;;;;;36.35;60.70;97693.63;4976349;28;20042;-72
2022/08/09 03:38:56;;;;;;;31.13;23.08;;;;;;;35.97;62.52;97694.25;4951138;28;20134;-72
2022/08/09 03:41:38;;;;;;;30.17;23.55;;;;;;;36.39;62.71;97697.19;4949120;29;20051;-72
2022/08/09 03:44:29;;;;;;;33.25;23.00;;;;;;;36.56;62.29;97701.03;4948614;29;20059;-71
2022/08/09 03:47:24;;;;;;;29.25;22.55;;;;;;;36.56;62.58;97704.63;4949498;28;20062;-72
2022/08/09 03:50:21;;;;;;;25.70;22.52;;;;;;;36.42;63.24;97699.94;4954575;28;20053;-71
2022/08/09 03:53:14;;;;;;;27.88;22.40;;;;;;;36.02;61.29;97696.63;4948204;29;20050;-72
2022/08/09 03:56:00;;;;;;;25.67;22.08;;;;;;;36.52;60.17;97694.69;4949164;29;20348;-73
2022/08/09 03:58:49;;;;;;;25.50;20.30;;;;;;;36.83;60.26;97696.41;4957409;28;20035;-72
2022/08/09 04:01:35;;;;;;;21.38;19.08;;;;;;;37.31;55.49;97696.72;4967969;28;20038;-72
2022/08/09 04:04:26;;;;;;;24.48;19.52;;;;;;;36.94;57.77;97699.09;4967424;28;20549;-72
2022/08/09 04:07:18;;;;;;;21.85;19.13;;;;;;;36.97;59.00;97700.25;4957761;28;20090;-72
2022/08/09 04:10:27;;;;;;;21.88;18.55;;;;;;;37.59;56.55;97701.16;4967394;28;20046;-72
2022/08/09 04:13:10;;;;;;;;;;;;;;;37.22;59.34;97700.81;4969312;28;20066;-71
2022/08/09 04:16:19;;;;;;;20.25;18.13;;;;;;;37.17;57.42;97703.28;4967692;28;20079;-72
2022/08/09 04:19:01;;;;;;;24.75;20.17;;;;;;;37.11;55.95;97694.53;4967916;28;20062;-72
2022/08/09 04:21:55;;;;;;;24.63;20.88;;;;;;;36.46;59.89;97691.53;4966555;28;20050;-73
2022/08/09 04:24:58;;;;;;;24.85;21.50;;;;;;;36.02;59.70;97688.25;4967536;28;20076;-72
2022/08/09 04:27:40;;;;;;;28.15;23.88;;;;;;;36.44;58.44;97686.34;4967667;28;20053;-71
2022/08/09 04:30:30;;;;;;;27.38;22.48;;;;;;;37.04;57.16;97689.00;4961137;28;20061;-72
2022/08/09 04:33:12;;;;;;;;;;;;;;;36.45;58.55;97678.75;4967813;28;20054;-72
2022/08/09 04:36:16;;;;;;;25.88;21.73;;;;;;;36.40;59.13;97682.81;4967076;28;20326;-72
2022/08/09 04:38:54;;;;;;;26.27;21.98;;;;;;;36.48;60.64;97680.75;4967454;28;20102;-72
2022/08/09 04:41:43;;;;;;;25.42;21.77;;;;;;;37.25;58.18;97678.81;4959440;28;20042;-72
2022/08/09 04:44:25;;;;;;;26.25;21.35;;;;;;;37.52;58.45;97693.66;4986629;28;20500;-72
2022/08/09 04:47:20;;;;;;;28.98;23.13;;;;;;;38.06;55.93;97683.72;4986268;28;20073;-71
2022/08/09 04:50:28;;;;;;;31.48;24.58;;;;;;;37.08;59.00;97692.53;4986950;28;20050;-72
2022/08/09 04:53:18;;;;;;;26.90;22.67;;;;;;;37.94;58.27;97687.91;4973065;28;20053;-73
2022/08/09 04:56:02;;;;;;;26.45;21.95;;;;;;;38.24;55.40;97684.28;4979380;28;20047;-68
2022/08/09 04:58:51;;;;;;;30.67;21.60;;;;;;;38.52;53.31;97694.22;4964678;28;20587;-68
2022/08/09 05:01:36;;;;;;;24.77;19.77;;;;;;;37.88;53.31;97690.38;4975656;28;20058;-70
2022/08/09 05:04:25;;;;;;;23.63;20.15;;;;;;;37.65;54.89;97699.50;4975405;28;20133;-70
2022/08/09 05:07:14;;;;;;;21.45;18.30;;;;;;;37.30;55.51;97698.72;4972095;28;20140;-69
2022/08/09 05:10:04;;;;;;;25.48;19.00;;;;;;;36.84;56.33;97697.19;4977093;28;20474;-69
2022/08/09 05:12:47;;;;;;;23.92;19.60;;;;;;;36.99;59.42;97689.44;4977888;28;20046;-70
2022/08/09 05:15:36;;;;;;;26.92;19.15;;;;;;;37.77;55.18;97676.53;4981320;28;20050;-69
2022/08/09 05:18:32;;;;;;;22.00;18.00;;;;;;;38.02;53.99;97683.78;4986249;28;20046;-70
2022/08/09 05:21:38;;;;;;;20.17;16.63;;;;;;;38.37;51.83;97688.06;4985959;28;20050;-70
2022/08/09 05:24:35;;;;;;;16.77;14.68;;;;;;;38.74;53.04;97682.66;4972091;28;20051;-70
2022/08/09 05:27:27;;;;;;;22.20;14.65;;;;;;;38.37;50.69;97693.66;4966464;28;20051;-70
2022/08/09 05:30:11;;;;;;;21.92;16.73;;;;;;;37.86;53.06;97694.84;4973469;28;20504;-69
2022/08/09 05:33:00;;;;;;;20.45;15.38;;;;;;;37.76;54.00;97683.34;4977296;28;20065;-69
2022/08/09 05:35:42;;;;;;;17.15;15.32;;;;;;;38.02;52.65;97678.16;4981220;28;20054;-70
2022/08/09 05:38:31;;;;;;;16.50;14.63;;;;;;;38.47;52.75;97663.09;4963566;28;20823;-70
2022/08/09 05:41:19;;;;;;;17.70;14.55;;;;;;;38.39;50.45;97651.22;4970429;28;20046;-69
2022/08/09 05:44:08;;;;;;;13.88;12.25;;;;;;;38.75;52.02;97645.78;4976673;28;20457;-68
2022/08/09 05:46:52;;;;;;;16.15;12.57;;;;;;;38.75;51.31;97639.34;4957231;28;20046;-70
2022/08/09 05:49:51;;;;;;;14.65;13.02;;;;;;;39.33;50.39;97634.22;4965172;28;20054;-70
2022/08/09 05:53:00;;;;;;;15.65;14.02;;;;;;;38.74;49.02;97635.75;4964921;28;20510;-71
2022/08/09 05:55:42;;;;;;;16.77;13.50;;;;;;;38.88;48.56;97636.72;4946528;29;20584;-68
2022/08/09 05:58:39;;;;;;;15.25;13.50;;;;;;;38.32;51.35;97629.69;4945927;29;20503;-69
2022/08/09 06:01:15;;;;;;;15.32;12.90;;;;;;;37.58;52.90;97627.56;4957926;28;20535;-68
2022/08/09 06:04:11;;;;;;;17.13;14.45;;;;;;;37.89;52.54;97641.56;4964366;28;20042;-71
2022/08/09 06:06:47;;;;;;;15.98;13.80;;;;;;;37.31;53.99;97640.75;4976314;28;20076;-71
2022/08/09 06:09:42;;;;;;;16.58;13.88;;;;;;;37.38;53.40;97637.88;4942280;28;20111;-71
2022/08/09 06:12:36;;;;;;;15.68;13.90;;;;;;;37.14;51.69;97642.56;4945767;29;20474;-71
2022/08/09 06:15:44;;;;;;;16.38;14.00;;;;;;;36.86;52.99;97644.47;4910524;29;20059;-70
2022/08/09 06:18:22;;;;;;;14.30;12.60;;;;;;;37.50;51.02;97642.88;4954038;28;20099;-70
2022/08/09 06:21:11;;;;;;;19.15;14.38;;;;;;;37.35;53.51;97633.09;4964395;28;20075;-69
2022/08/09 06:24:00;;;;;;;15.90;14.15;;;;;;;37.58;51.98;97627.56;4965834;28;20098;-70
2022/08/09 06:26:42;;;;;;;23.83;17.60;;;;;;;37.56;53.51;97620.81;4971225;28;20798;-71
2022/08/09 06:29:32;;;;;;;25.20;17.00;;;;;;;37.56;55.62;97610.41;4961971;28;20046;-71
2022/08/09 06:32:34;;;;;;;14.65;12.65;;;;;;;37.69;52.30;97593.84;4969829;28;20050;-69
2022/08/09 06:35:43;;;;;;;13.65;10.77;;;;;;;38.07;49.13;97581.66;4964255;28;20153;-69
2022/08/09 06:38:39;;;;;;;16.95;11.00;;;;;;;38.53;48.81;97571.66;4966530;28;20077;-71
2022/08/09 06:41:30;;;;;;;12.75;10.85;;;;;;;38.33;49.98;97568.81;4950438;28;20070;-70
2022/08/09 06:44:32;;;;;;;22.48;11.95;;;;;;;38.66;51.55;97561.41;4951122;28;20047;-69
2022/08/09 06:47:23;;;;;;;20.95;16.35;;;;;;;38.44;52.59;97563.81;4956991;28;20497;-70
2022/08/09 06:50:23;;;;;;;23.20;16.75;;;;;;;38.37;52.03;97581.56;4938780;28;20039;-71
2022/08/09 06:53:18;;;;;;;20.40;17.17;;;;;;;37.93;52.35;97586.28;4936373;29;20126;-70
2022/08/09 06:55:54;;;;;;;22.95;18.35;;;;;;;37.51;52.12;97582.91;4936474;28;20051;-70
2022/08/09 06:58:43;;;;;;;20.83;17.98;;;;;;;37.57;53.35;97583.22;4957006;28;20046;-73
2022/08/09 07:01:45;;;;;;;21.90;18.02;;;;;;;37.15;54.63;97580.59;4964265;28;20087;-72
2022/08/09 07:04:44;;;;;;;20.45;16.98;;;;;;;37.67;54.30;97578.72;4958143;28;20047;-72
2022/08/09 07:07:26;;;;;;;22.65;17.75;;;;;;;37.75;54.91;97572.56;4943259;29;20051;-71
2022/08/09 07:10:35;;;;;;;19.67;15.02;;;;;;;37.75;52.18;97563.38;4932893;29;20043;-70
2022/08/09 07:13:19;;;;;;;17.55;15.65;;;;;;;37.23;52.70;97562.50;4939501;29;20142;-71
2022/08/09 07:16:10;;;;;;;18.02;15.73;;;;;;;37.42;51.93;97549.06;4937732;29;20035;-73
2022/08/09 07:19:12;;;;;;;20.35;15.43;;;;;;;37.05;54.20;97539.53;4912986;28;20063;-71
2022/08/09 07:22:03;;;;;;;20.10;15.30;;;;;;;37.39;57.34;97531.09;4935642;28;20086;-70
2022/08/09 07:24:46;;;;;;;21.92;14.68;;;;;;;37.90;53.67;97528.31;4943474;28;20533;-70
2022/08/09 07:27:35;;;;;;;15.80;13.35;;;;;;;37.99;51.74;97522.97;4951378;28;20051;-68
2022/08/09 07:30:33;;;;;;;20.75;14.90;;;;;;;38.87;53.12;97520.94;4933164;28;20081;-70
2022/08/09 07:33:30;;;;;;;18.17;14.30;;;;;;;38.57;49.34;97521.94;4939271;28;20150;-69
2022/08/09 07:36:26;;;;;;;17.23;13.77;;;;;;;37.86;51.49;97522.00;4954049;28;20046;-70
2022/08/09 07:39:23;;;;;;;15.93;13.85;;;;;;;37.86;52.98;97518.41;4934575;28;20113;-70
2022/08/09 07:42:22;;;;;;;15.05;13.45;;;;;;;37.35;54.38;97519.16;4944690;28;20054;-68
2022/08/09 07:45:12;;;;;;;15.15;13.50;;;;;;;37.42;51.91;97535.06;4952467;28;20039;-72
2022/08/09 07:48:27;;;;;;;15.77;13.27;;;;;;;37.51;54.60;97543.72;4930348;29;20043;-70
2022/08/09 07:51:25;;;;;;;15.32;13.00;;;;;;;37.45;52.88;97537.00;4932251;29;20487;-70
2022/08/09 07:54:33;;;;;;;14.65;12.00;;;;;;;37.80;48.74;97532.88;4957812;28;20063;-71
2022/08/09 07:57:19;;;;;;;16.88;12.65;;;;;;;38.01;53.19;97530.94;4966530;28;20250;-70
2022/08/09 08:00:28;;;;;;;17.48;12.63;;;;;;;37.69;49.08;97525.88;4949020;28;20526;-70
2022/08/09 08:03:36;;;;;;;14.75;12.10;;;;;;;37.88;49.71;97516.75;4938015;28;20051;-70
2022/08/09 08:06:26;;;;;;;24.48;12.77;;;;;;;37.51;53.05;97507.34;4940165;28;20434;-69
2022/08/09 08:09:12;;;;;;;16.77;12.93;;;;;;;37.03;53.79;97505.59;4963091;28;20054;-70
2022/08/09 08:12:21;;;;;;;16.40;13.27;;;;;;;36.94;55.55;97505.34;4943444;28;20195;-68
2022/08/09 08:15:18;;;;;;;15.40;13.80;;;;;;;37.26;55.82;97504.13;4938480;29;20059;-68
2022/08/09 08:18:04;;;;;;;16.33;13.13;;;;;;;37.19;55.31;97499.44;4937234;29;20325;-69
2022/08/09 08:20:54;;;;;;;20.08;13.25;;;;;;;36.82;52.63;97504.69;4938534;29;20055;-69
2022/08/09 08:23:43;;;;;;;14.93;13.13;;;;;;;36.97;53.93;97529.66;4949657;28;20102;-68
2022/08/09 08:26:36;;;;;;;21.92;15.93;;;;;;;35.26;63.40;97542.78;4928717;29;20040;-69
2022/08/09 08:29:36;;;;;;;22.20;16.48;;;;;;;34.93;64.22;97546.09;4932146;28;20054;-69
2022/08/09 08:32:25;;;;;;;19.38;16.23;;;;;;;34.93;64.23;97541.34;4947572;29;20055;-70
2022/08/09 08:35:14;;;;;;;20.88;15.25;;;;;;;34.34;64.93;97541.91;4947712;29;20114;-69
2022/08/09 08:37:58;;;;;;;19.65;12.85;;;;;;;34.25;61.50;97533.94;4952517;28;20047;-69
2022/08/09 08:40:51;;;;;;;16.95;9.55;;;;;;;33.99;60.18;97526.78;4967107;28;20637;-70
2022/08/09 08:43:33;;;;;;;15.13;10.07;;;;;;;33.85;60.64;97518.47;4966824;28;20820;-70
2022/08/09 08:46:26;;;;;;;13.15;9.85;;;;;;;34.14;59.41;97530.34;4959209;28;20109;-70
2022/08/09 08:49:21;;;;;;;13.20;9.50;;;;;;;33.93;59.82;97531.19;4966073;28;20051;-69
2022/08/09 08:52:31;;;;;;;26.50;9.85;;;;;;;34.54;58.19;97533.88;4966260;28;20051;-70
2022/08/09 08:55:42;;;;;;;15.43;10.10;;;;;;;34.51;58.84;97538.28;4966738;28;20058;-69
2022/08/09 08:58:32;;;;;;;10.65;9.07;;;;;;;33.83;60.40;97537.56;4958827;28;20062;-70
2022/08/09 09:01:17;;;;;;;11.32;9.43;;;;;;;33.49;61.44;97526.75;4948469;28;20057;-71
2022/08/09 09:04:29;;;;;;;13.65;10.60;;;;;;;33.39;62.02;97516.44;4951696;28;20059;-69
2022/08/09 09:07:33;;;;;;;12.85;10.38;;;;;;;33.95;60.38;97520.44;4958546;28;20125;-70
2022/08/09 09:10:26;;;;;;;15.30;10.35;;;;;;;33.78;60.53;97507.34;4963406;28;21484;-69
2022/08/09 09:13:25;;;;;;;13.35;10.27;;;;;;;33.69;61.25;97491.06;4960636;28;20062;-70
2022/08/09 09:16:20;;;;;;;12.57;9.80;;;;;;;32.86;63.78;97481.72;4636105;28;10001001;-70
2022/08/09 09:19:11;;;;;;;16.08;10.90;;;;;;;33.09;63.06;97470.28;4966421;28;20163;-72
2022/08/09 09:22:25;;;;;;;22.38;11.45;;;;;;;33.12;63.53;97469.53;4967824;28;20050;-71
2022/08/09 09:25:08;;;;;;;16.25;10.93;;;;;;;33.43;61.72;97476.28;4962251;28;20408;-69
2022/08/09 09:28:18;;;;;;;12.23;9.43;;;;;;;33.51;61.90;97471.53;4968292;28;20058;-70
2022/08/09 09:31:21;;;;;;;15.55;10.30;;;;;;;33.45;61.70;97467.56;4945534;28;20046;-72
2022/08/09 09:34:30;;;;;;;15.02;10.40;;;;;;;33.28;61.87;97472.72;4961587;28;20490;-73
2022/08/09 09:37:28;;;;;;;13.40;8.63;;;;;;;33.22;60.06;97460.41;4975110;28;20450;-74
2022/08/09 09:40:20;;;;;;;11.35;8.82;;;;;;;33.16;60.80;97446.09;4976593;28;20090;-70
2022/08/09 09:43:05;;;;;;;12.23;9.18;;;;;;;33.24;59.07;97448.88;4983334;28;20039;-71
2022/08/09 09:46:01;;;;;;;11.80;8.80;;;;;;;33.31;60.10;97446.91;4967150;28;20058;-70
2022/08/09 09:49:24;;;;;;;11.70;8.38;;;;;;;32.97;59.38;97438.09;4967293;28;20035;-70
2022/08/09 09:52:34;;;;;;;13.88;7.75;;;;;;;33.14;59.83;97439.34;4964504;28;20049;-69
2022/08/09 09:55:17;;;;;;;8.35;6.57;;;;;;;32.93;59.37;97426.97;4935422;28;20140;-69
2022/08/09 09:58:14;;;;;;;8.98;7.00;;;;;;;32.95;59.09;97413.47;4960493;28;20058;-70
2022/08/09 10:01:02;;;;;;;8.00;6.32;;;;;;;33.28;59.67;97403.19;4960212;28;20074;-69
2022/08/09 10:04:16;;;;;;;9.43;6.55;;;;;;;33.06;60.94;97388.47;4958519;28;20051;-74
2022/08/09 10:07:26;;;;;;;9.02;6.88;;;;;;;33.23;56.46;97388.91;4942140;28;20081;-71
2022/08/09 10:10:35;;;;;;;11.02;6.38;;;;;;;33.13;60.26;97396.03;4932480;28;20055;-72
2022/08/09 10:13:24;;;;;;;8.32;6.55;;;;;;;33.34;60.56;97396.06;4962242;28;20091;-73
2022/08/09 10:16:28;;;;;;;11.60;6.70;;;;;;;33.64;58.78;97391.28;4957561;28;20058;-71
2022/08/09 10:19:42;;;;;;;10.30;6.55;;;;;;;33.50;60.40;97386.53;4933583;28;20566;-72
2022/08/09 10:22:36;;;;;;;11.18;6.35;;;;;;;33.72;60.36;97388.06;4947237;28;20063;-71
2022/08/09 10:25:26;;;;;;;10.13;6.75;;;;;;;33.73;59.49;97391.69;4948267;28;20162;-71
2022/08/09 10:28:35;;;;;;;11.05;6.38;;;;;;;33.78;57.16;97398.81;4945795;28;20158;-68
2022/08/09 10:31:46;;;;;;;10.38;7.13;;;;;;;33.51;58.66;97397.22;4957263;28;20901;-69
2022/08/09 10:34:56;;;;;;;14.77;6.78;;;;;;;33.62;57.66;97388.09;4955705;28;20050;-71
2022/08/09 10:37:50;;;;;;;11.90;7.07;;;;;;;33.55;57.04;97383.31;4945672;28;20050;-70
2022/08/09 10:40:36;;;;;;;15.35;8.43;;;;;;;33.68;58.25;97386.50;4946075;28;20046;-68
2022/08/09 10:43:32;;;;;;;7.93;5.90;;;;;;;33.95;53.85;97386.84;4956710;28;20153;-69
2022/08/09 10:47:05;;;;;;;7.30;6.05;;;;;;;33.34;58.16;97384.13;4956496;28;20043;-70
2022/08/09 10:50:24;;;;;;;12.82;5.90;;;;;;;33.77;57.05;97400.03;4956834;28;20100;-68
2022/08/09 10:53:47;;;;;;;8.23;5.85;;;;;;;33.93;56.98;97409.50;4944712;28;20744;-70
2022/08/09 10:56:38;;;;;;;16.08;5.93;;;;;;;33.99;59.29;97407.09;4960471;28;20710;-68
2022/08/09 10:59:22;;;;;;;15.15;7.18;;;;;;;34.14;58.82;97402.28;4954560;28;20141;-69
2022/08/09 11:02:42;;;;;;;15.63;7.75;;;;;;;33.87;58.88;97399.97;4961308;28;20134;-70
2022/08/09 11:06:24;;;;;;;10.93;6.82;;;;;;;34.32;58.23;97418.97;4962605;28;20138;-69
2022/08/09 11:09:21;;;;;;;21.67;6.90;;;;;;;33.97;59.55;97414.28;4949366;28;20062;-69
2022/08/09 11:12:24;;;;;;;8.38;6.00;;;;;;;34.18;58.56;97413.44;4966195;28;20050;-69
2022/08/09 11:15:29;;;;;;;9.77;6.30;;;;;;;34.26;58.54;97410.25;4958494;28;20066;-69
2022/08/09 11:18:44;;;;;;;13.80;6.72;;;;;;;33.53;60.44;97402.38;4965330;28;20138;-69
2022/08/09 11:22:00;;;;;;;8.25;6.55;;;;;;;33.73;60.49;97403.59;4985268;28;20128;-68
2022/08/09 11:25:27;;;;;;;11.48;6.65;;;;;;;33.24;61.99;97409.97;4982219;28;20051;-70
2022/08/09 11:28:38;;;;;;;10.05;7.15;;;;;;;34.00;60.75;97405.13;4965577;28;20082;-69
2022/08/09 11:31:52;;;;;;;9.15;7.25;;;;;;;33.78;60.66;97401.59;4958736;28;20065;-69
2022/08/09 11:34:42;;;;;;;12.13;7.53;;;;;;;33.87;60.74;97397.19;4965070;28;20711;-68
2022/08/09 11:37:31;;;;;;;17.13;9.95;;;;;;;33.80;61.58;97396.41;4948758;29;20141;-70
2022/08/09 11:40:34;;;;;;;10.45;7.82;;;;;;;33.80;60.39;97401.97;4960021;28;20078;-70
2022/08/09 11:43:29;;;;;;;12.70;7.57;;;;;;;33.42;60.53;97401.59;4625944;28;9999685;-72
2022/08/09 11:46:12;;;;;;;11.00;6.95;;;;;;;33.19;61.20;97402.81;4985214;28;20433;-70
2022/08/09 11:49:13;;;;;;;11.77;7.07;;;;;;;33.47;59.83;97390.88;4985001;28;20058;-69
2022/08/09 11:52:07;;;;;;;10.63;6.78;;;;;;;33.37;58.55;97388.91;4974427;28;20049;-71
2022/08/09 11:55:36;;;;;;;9.80;6.35;;;;;;;33.74;59.39;97388.50;4969055;28;20057;-71
2022/08/09 11:58:55;;;;;;;10.50;7.60;;;;;;;33.62;60.00;97391.66;4950816;28;20043;-72
2022/08/09 12:01:50;;;;;;;9.82;6.90;;;;;;;33.45;60.29;97386.91;4973956;28;20065;-73
2022/08/09 12:04:46;;;;;;;11.85;7.90;;;;;;;33.73;59.74;97386.09;4975742;28;20046;-72
2022/08/09 12:07:40;;;;;;;10.30;7.28;;;;;;;33.58;61.10;97385.31;4961211;28;20050;-70
2022/08/09 12:10:24;;;;;;;14.23;7.57;;;;;;;33.57;59.68;97386.47;4965639;28;20090;-70
2022/08/09 12:13:36;;;;;;;13.15;8.10;;;;;;;33.96;60.04;97391.22;4950528;28;20054;-76
2022/08/09 12:16:49;;;;;;;15.82;7.63;;;;;;;33.92;58.80;97388.44;4959661;28;20149;-72
2022/08/09 12:19:37;;;;;;;10.30;7.28;;;;;;;33.80;61.43;97388.06;4964344;28;20566;-70
2022/08/09 12:22:30;;;;;;;10.25;7.68;;;;;;;33.47;62.85;97390.09;4964691;28;20133;-72
2022/08/09 12:25:18;;;;;;;21.17;9.38;;;;;;;33.61;62.41;97398.44;4932633;28;20062;-70
2022/08/09 12:28:24;;;;;;;12.65;8.57;;;;;;;33.39;63.74;97394.84;4964972;28;20062;-74
2022/08/09 12:31:40;;;;;;;14.68;8.52;;;;;;;33.48;62.17;97388.91;4953492;28;20086;-72
2022/08/09 12:34:41;;;;;;;10.18;8.18;;;;;;;33.57;62.92;97402.38;4958847;28;20406;-72
2022/08/09 12:37:35;;;;;;;14.57;9.10;;;;;;;33.77;59.59;97398.03;4946316;29;20130;-74
2022/08/09 12:40:31;;;;;;;12.38;9.38;;;;;;;33.73;62.54;97400.81;4947009;29;20644;-71
2022/08/09 12:43:23;;;;;;;14.13;9.45;;;;;;;33.24;63.51;97380.16;4953965;28;20070;-72
2022/08/09 12:46:33;;;;;;;11.93;9.35;;;;;;;33.64;60.87;97382.94;4958428;28;20059;-74
2022/08/09 12:49:16;;;;;;;11.65;9.40;;;;;;;33.45;62.34;97384.13;4956697;28;20505;-73
2022/08/09 12:52:13;;;;;;;13.32;8.57;;;;;;;33.11;63.00;97399.22;4932490;29;20153;-74
2022/08/09 12:55:25;;;;;;;16.42;9.70;;;;;;;33.08;63.90;97385.31;4959406;28;20046;-74
2022/08/09 12:58:34;;;;;;;13.52;9.98;;;;;;;32.84;65.40;97378.53;4938773;28;20050;-73
2022/08/09 13:01:31;;;;;;;13.55;10.13;;;;;;;32.97;64.20;97366.63;4939786;29;20141;-72
2022/08/09 13:04:14;;;;;;;15.07;10.73;;;;;;;32.76;64.71;97358.28;4947117;29;20051;-71
2022/08/09 13:07:18;;;;;;;14.00;9.75;;;;;;;33.28;63.16;97350.38;4929184;28;20235;-72
2022/08/09 13:10:20;;;;;;;19.35;10.65;;;;;;;33.02;64.23;97356.28;4928122;29;20048;-71
2022/08/09 13:13:26;;;;;;;20.92;10.30;;;;;;;33.13;64.47;97359.91;4926426;29;20079;-71
2022/08/09 13:16:19;;;;;;;15.68;10.45;;;;;;;32.94;64.73;97349.94;4956797;28;20055;-73
2022/08/09 13:19:11;;;;;;;13.80;9.02;;;;;;;32.44;64.69;97345.06;4944528;28;20321;-71
2022/08/09 13:21:54;;;;;;;10.15;8.02;;;;;;;32.37;63.57;97350.63;4949781;28;20134;-73
2022/08/09 13:25:03;;;;;;;11.80;8.25;;;;;;;32.56;61.94;97349.47;4925146;29;20042;-71
2022/08/09 13:27:48;;;;;;;10.38;5.35;;;;;;;32.54;60.62;97352.66;4964129;28;20052;-73
2022/08/09 13:30:43;;;;;;;8.57;5.28;;;;;;;32.45;59.85;97345.88;4964167;28;20053;-72
2022/08/09 13:33:52;;;;;;;5.53;3.78;;;;;;;32.39;59.63;97351.03;4951337;28;20047;-72